createdAt,value
2017-07-30T00:01:06.495Z,79.30
2017-07-30T00:03:34.032Z,79.40
2017-07-30T00:06:02.441Z,79.60
2017-07-30T00:08:30.034Z,79.50
2017-07-30T00:10:58.444Z,79.70
2017-07-30T00:13:26.256Z,79.60
2017-07-30T00:15:54.751Z,79.40
2017-07-30T00:18:22.582Z,79.30
2017-07-30T00:20:50.139Z,79.90
2017-07-30T00:23:18.463Z,80.50
2017-07-30T00:25:46.420Z,80.40
2017-07-30T00:28:13.979Z,80.00
2017-07-30T00:30:41.515Z,81.10
2017-07-30T00:33:09.087Z,81.20
2017-07-30T00:35:37.379Z,82.00
2017-07-30T00:38:04.980Z,82.00
2017-07-30T00:40:33.357Z,80.30
2017-07-30T00:43:01.082Z,80.30
2017-07-30T00:45:28.711Z,80.70
2017-07-30T00:47:56.456Z,80.70
2017-07-30T00:50:24.197Z,81.50
2017-07-30T00:52:52.509Z,82.00
2017-07-30T00:55:20.089Z,80.70
2017-07-30T00:57:47.654Z,80.60
2017-07-30T01:00:15.188Z,80.20
2017-07-30T01:02:42.752Z,80.20
2017-07-30T01:05:10.323Z,80.80
2017-07-30T01:07:37.910Z,81.80
2017-07-30T01:10:05.438Z,81.20
2017-07-30T01:12:33.188Z,80.20
2017-07-30T01:15:00.797Z,81.00
2017-07-30T01:17:29.237Z,81.90
2017-07-30T01:19:56.996Z,81.10
2017-07-30T01:22:24.878Z,80.80
2017-07-30T01:24:52.599Z,81.00
2017-07-30T01:27:21.237Z,82.10
2017-07-30T01:29:48.821Z,82.10
2017-07-30T01:32:16.387Z,82.00
2017-07-30T01:34:43.919Z,81.40
2017-07-30T01:37:11.476Z,81.10
2017-07-30T01:39:39.009Z,81.10
2017-07-30T01:42:06.550Z,81.10
2017-07-30T01:44:34.103Z,81.40
2017-07-30T01:47:01.726Z,81.50
2017-07-30T01:51:52.570Z,81.80
2017-07-30T01:54:20.135Z,81.90
2017-07-30T01:56:47.697Z,81.40
2017-07-30T01:59:15.222Z,80.90
2017-07-30T02:01:45.884Z,80.70
2017-07-30T02:04:13.408Z,82.60
2017-07-30T02:06:40.952Z,83.40
2017-07-30T02:09:08.474Z,84.10
2017-07-30T02:11:36.015Z,83.20
2017-07-30T02:14:03.563Z,83.00
2017-07-30T02:16:31.217Z,82.40
2017-07-30T02:18:58.884Z,81.70
2017-07-30T02:21:26.562Z,81.00
2017-07-30T02:23:54.304Z,80.50
2017-07-30T02:26:23.042Z,80.80
2017-07-30T02:28:50.630Z,80.80
2017-07-30T02:31:18.169Z,80.80
2017-07-30T02:33:45.742Z,80.00
2017-07-30T02:36:13.313Z,79.10
2017-07-30T02:38:40.867Z,79.30
2017-07-30T02:41:08.394Z,79.80
2017-07-30T02:43:36.088Z,79.10
2017-07-30T02:46:03.678Z,79.50
2017-07-30T02:48:32.169Z,79.20
2017-07-30T02:50:59.825Z,79.10
2017-07-30T02:53:27.565Z,79.60
2017-07-30T02:55:55.435Z,78.50
2017-07-30T02:58:24.678Z,78.30
2017-07-30T03:00:52.866Z,78.20
2017-07-30T03:03:20.529Z,79.80
2017-07-30T03:05:48.169Z,78.10
2017-07-30T03:08:15.840Z,78.60
2017-07-30T03:10:43.483Z,78.00
2017-07-30T03:13:11.095Z,78.00
2017-07-30T03:15:38.731Z,77.80
2017-07-30T03:18:06.337Z,77.90
2017-07-30T03:20:34.749Z,77.10
2017-07-30T03:23:02.401Z,76.80
2017-07-30T03:25:30.168Z,77.60
2017-07-30T03:27:57.855Z,76.20
2017-07-30T03:30:26.583Z,76.80
2017-07-30T03:32:54.689Z,76.80
2017-07-30T03:35:22.665Z,78.00
2017-07-30T03:37:50.330Z,77.30
2017-07-30T03:40:17.883Z,77.40
2017-07-30T03:42:45.416Z,76.40
2017-07-30T03:45:13.088Z,77.90
2017-07-30T03:47:40.620Z,78.00
2017-07-30T03:50:08.161Z,78.00
2017-07-30T03:52:35.735Z,77.90
2017-07-30T03:55:03.395Z,78.80
2017-07-30T03:57:31.029Z,78.30
2017-07-30T03:59:58.678Z,79.10
2017-07-30T04:02:26.810Z,79.50
2017-07-30T04:04:54.685Z,79.70
2017-07-30T04:07:23.672Z,78.90
2017-07-30T04:09:51.270Z,79.20
2017-07-30T04:12:18.850Z,78.80
2017-07-30T04:14:46.383Z,79.60
2017-07-30T04:17:13.940Z,80.50
2017-07-30T04:19:41.464Z,80.00
2017-07-30T04:22:09.027Z,78.10
2017-07-30T04:24:36.555Z,79.60
2017-07-30T04:27:04.210Z,80.70
2017-07-30T04:29:31.855Z,78.40
2017-07-30T04:31:59.611Z,77.80
2017-07-30T04:34:27.536Z,74.70
2017-07-30T04:36:56.555Z,74.00
2017-07-30T04:39:24.550Z,74.30
2017-07-30T04:41:52.309Z,72.30
2017-07-30T04:44:19.872Z,70.80
2017-07-30T04:46:47.399Z,70.80
2017-07-30T04:49:14.946Z,70.50
2017-07-30T04:51:42.487Z,72.80
2017-07-30T04:54:10.367Z,71.20
2017-07-30T04:56:37.895Z,69.50
2017-07-30T04:59:05.443Z,66.00
2017-07-30T05:01:33.022Z,64.60
2017-07-30T05:04:00.851Z,63.60
2017-07-30T05:06:28.566Z,64.40
2017-07-30T05:08:57.106Z,63.20
2017-07-30T05:11:25.074Z,60.70
2017-07-30T05:13:53.166Z,61.70
2017-07-30T05:16:20.809Z,59.40
2017-07-30T05:18:48.444Z,58.80
2017-07-30T05:21:16.818Z,59.80
2017-07-30T05:23:44.374Z,59.80
2017-07-30T05:26:11.920Z,57.50
2017-07-30T05:28:39.447Z,57.60
2017-07-30T05:31:07.066Z,57.20
2017-07-30T05:33:34.681Z,56.40
2017-07-30T05:36:02.231Z,56.30
2017-07-30T05:38:29.777Z,56.30
2017-07-30T05:40:57.475Z,56.00
2017-07-30T05:43:25.148Z,56.30
2017-07-30T05:45:52.827Z,55.80
2017-07-30T05:48:20.373Z,54.70
2017-07-30T05:50:47.933Z,55.10
2017-07-30T05:53:15.469Z,54.60
2017-07-30T05:55:43.023Z,54.70
2017-07-30T05:58:10.558Z,55.20
2017-07-30T06:00:38.103Z,54.80
2017-07-30T06:03:05.643Z,55.30
2017-07-30T06:05:33.243Z,54.60
2017-07-30T06:08:00.905Z,54.30
2017-07-30T06:10:28.488Z,54.20
2017-07-30T06:12:56.895Z,54.00
2017-07-30T06:15:24.587Z,54.00
2017-07-30T06:17:52.342Z,53.60
2017-07-30T06:20:19.895Z,53.50
2017-07-30T06:22:47.443Z,53.30
2017-07-30T06:25:14.979Z,53.40
2017-07-30T06:27:42.606Z,53.50
2017-07-30T06:30:10.231Z,53.70
2017-07-30T06:32:37.893Z,53.60
2017-07-30T06:35:05.508Z,53.50
2017-07-30T06:37:33.245Z,53.50
2017-07-30T06:40:01.712Z,53.30
2017-07-30T06:42:30.198Z,53.90
2017-07-30T06:44:57.929Z,53.90
2017-07-30T06:47:25.789Z,53.40
2017-07-30T06:49:53.587Z,53.20
2017-07-30T06:52:21.212Z,53.10
2017-07-30T06:54:48.908Z,52.40
2017-07-30T06:57:16.551Z,52.90
2017-07-30T06:59:44.114Z,52.70
2017-07-30T07:02:12.475Z,53.00
2017-07-30T07:04:40.896Z,53.30
2017-07-30T07:07:08.526Z,53.20
2017-07-30T07:09:36.131Z,53.30
2017-07-30T07:12:04.546Z,53.10
2017-07-30T07:14:32.177Z,52.80
2017-07-30T07:16:59.726Z,52.90
2017-07-30T07:19:27.473Z,52.60
2017-07-30T07:21:55.250Z,52.40
2017-07-30T07:24:22.930Z,52.80
2017-07-30T07:26:50.545Z,52.40
2017-07-30T07:29:18.197Z,52.30
2017-07-30T07:31:45.742Z,52.50
2017-07-30T07:34:13.357Z,52.50
2017-07-30T07:36:40.899Z,52.30
2017-07-30T07:39:08.519Z,52.10
2017-07-30T07:41:36.842Z,51.20
2017-07-30T07:44:04.464Z,51.10
2017-07-30T07:46:32.058Z,52.00
2017-07-30T07:49:00.142Z,52.40
2017-07-30T07:51:27.866Z,51.80
2017-07-30T07:53:56.309Z,50.80
2017-07-30T07:56:23.964Z,50.70
2017-07-30T07:58:51.682Z,50.60
2017-07-30T08:01:19.286Z,50.80
2017-07-30T08:03:47.657Z,50.10
2017-07-30T08:06:16.077Z,50.60
2017-07-30T08:08:43.688Z,50.60
2017-07-30T08:11:11.320Z,50.00
2017-07-30T08:13:38.886Z,51.10
2017-07-30T08:16:06.549Z,50.80
2017-07-30T08:18:34.132Z,50.80
2017-07-30T08:21:01.833Z,49.90
2017-07-30T08:23:29.436Z,49.20
2017-07-30T08:25:57.907Z,50.00
2017-07-30T08:28:26.407Z,49.50
2017-07-30T08:30:54.297Z,49.60
2017-07-30T08:33:22.007Z,49.70
2017-07-30T08:35:49.666Z,50.30
2017-07-30T08:38:17.222Z,49.30
2017-07-30T08:40:44.882Z,48.20
2017-07-30T08:43:12.454Z,48.40
2017-07-30T08:45:40.823Z,48.40
2017-07-30T08:48:09.194Z,48.70
2017-07-30T08:50:37.554Z,48.60
2017-07-30T08:53:05.941Z,48.70
2017-07-30T08:55:33.546Z,48.70
2017-07-30T08:58:01.266Z,48.00
2017-07-30T09:00:28.897Z,47.70
2017-07-30T09:02:56.587Z,47.90
2017-07-30T09:05:24.214Z,48.90
2017-07-30T09:07:51.949Z,48.50
2017-07-30T09:10:19.508Z,48.80
2017-07-30T09:12:47.079Z,48.60
2017-07-30T09:15:14.615Z,48.30
2017-07-30T09:17:42.199Z,48.50
2017-07-30T09:20:09.759Z,49.30
2017-07-30T09:22:37.379Z,48.60
2017-07-30T09:25:05.688Z,49.50
2017-07-30T09:27:33.227Z,49.40
2017-07-30T09:30:00.889Z,48.60
2017-07-30T09:32:28.472Z,48.10
2017-07-30T09:34:56.947Z,48.60
2017-07-30T09:37:24.562Z,48.60
2017-07-30T09:39:52.999Z,47.10
2017-07-30T09:42:20.554Z,47.00
2017-07-30T09:44:48.142Z,47.40
2017-07-30T09:47:16.493Z,46.60
2017-07-30T09:49:44.079Z,46.60
2017-07-30T09:52:11.619Z,47.50
2017-07-30T09:54:39.203Z,46.80
2017-07-30T09:57:06.748Z,47.00
2017-07-30T09:59:34.345Z,46.30
2017-07-30T10:02:02.675Z,44.20
2017-07-30T10:04:30.354Z,44.10
2017-07-30T10:06:57.919Z,43.50
2017-07-30T10:09:25.648Z,43.60
2017-07-30T10:11:54.077Z,43.30
2017-07-30T10:14:21.656Z,43.20
2017-07-30T10:16:49.207Z,42.30
2017-07-30T10:19:16.784Z,42.60
2017-07-30T10:21:44.307Z,41.90
2017-07-30T10:24:11.896Z,41.10
2017-07-30T10:26:39.505Z,41.90
2017-07-30T10:29:07.095Z,42.80
2017-07-30T10:31:34.671Z,42.00
2017-07-30T10:34:02.386Z,42.70
2017-07-30T10:36:30.037Z,41.90
2017-07-30T10:38:57.656Z,42.30
2017-07-30T10:41:25.465Z,42.10
2017-07-30T10:43:53.128Z,41.40
2017-07-30T10:46:20.711Z,41.20
2017-07-30T10:48:48.346Z,41.60
2017-07-30T10:51:16.410Z,40.50
2017-07-30T10:53:44.006Z,41.80
2017-07-30T10:56:12.432Z,42.10
2017-07-30T10:58:40.025Z,42.10
2017-07-30T11:01:08.463Z,41.20
2017-07-30T11:03:35.996Z,41.10
2017-07-30T11:06:03.656Z,40.50
2017-07-30T11:08:31.276Z,41.30
2017-07-30T11:10:58.916Z,41.20
2017-07-30T11:13:26.562Z,41.80
2017-07-30T11:15:54.192Z,41.40
2017-07-30T11:18:21.818Z,42.30
2017-07-30T11:20:49.520Z,42.60
2017-07-30T11:23:17.152Z,42.20
2017-07-30T11:25:44.774Z,42.30
2017-07-30T11:28:12.401Z,41.60
2017-07-30T11:30:40.041Z,41.70
2017-07-30T11:33:08.429Z,41.50
2017-07-30T11:35:36.076Z,41.40
2017-07-30T11:38:03.729Z,42.00
2017-07-30T11:40:31.416Z,42.20
2017-07-30T11:42:59.045Z,41.50
2017-07-30T11:45:26.819Z,41.30
2017-07-30T11:47:54.526Z,41.90
2017-07-30T11:50:22.210Z,42.60
2017-07-30T11:52:50.610Z,41.70
2017-07-30T11:55:19.009Z,41.80
2017-07-30T11:57:46.624Z,41.70
2017-07-30T12:00:15.001Z,41.20
2017-07-30T12:02:42.687Z,41.20
2017-07-30T12:05:10.291Z,40.80
2017-07-30T12:07:37.952Z,42.00
2017-07-30T12:10:05.565Z,42.40
2017-07-30T12:12:33.348Z,41.10
2017-07-30T12:15:00.947Z,40.80
2017-07-30T12:17:28.545Z,41.00
2017-07-30T12:19:56.224Z,40.50
2017-07-30T12:22:23.878Z,41.50
2017-07-30T12:24:51.519Z,40.60
2017-07-30T12:27:19.111Z,40.90
2017-07-30T12:29:46.714Z,40.30
2017-07-30T12:32:14.350Z,40.10
2017-07-30T12:34:41.886Z,41.40
2017-07-30T12:37:09.519Z,41.10
2017-07-30T12:39:37.092Z,40.30
2017-07-30T12:42:04.716Z,40.80
2017-07-30T12:44:32.290Z,40.90
2017-07-30T12:46:59.932Z,39.80
2017-07-30T12:49:27.523Z,39.90
2017-07-30T12:51:55.947Z,39.60
2017-07-30T12:54:23.604Z,39.50
2017-07-30T12:56:51.186Z,40.20
2017-07-30T12:59:18.754Z,39.50
2017-07-30T13:01:46.369Z,39.40
2017-07-30T13:04:13.985Z,38.20
2017-07-30T13:06:41.634Z,37.70
2017-07-30T13:09:09.232Z,39.10
2017-07-30T13:11:36.845Z,38.70
2017-07-30T13:14:04.429Z,39.50
2017-07-30T13:16:32.087Z,39.60
2017-07-30T13:18:59.690Z,38.60
2017-07-30T13:21:28.163Z,38.70
2017-07-30T13:23:56.541Z,38.70
2017-07-30T13:26:24.557Z,38.70
2017-07-30T13:28:53.102Z,39.00
2017-07-30T13:31:20.896Z,39.50
2017-07-30T13:33:49.821Z,39.90
2017-07-30T13:36:17.414Z,39.90
2017-07-30T13:38:45.194Z,38.40
2017-07-30T13:41:12.809Z,40.30
2017-07-30T13:43:40.385Z,41.50
2017-07-30T13:46:07.975Z,41.70
2017-07-30T13:48:35.528Z,40.10
2017-07-30T13:51:03.605Z,39.00
2017-07-30T13:53:31.272Z,38.60
2017-07-30T13:55:59.521Z,40.90
2017-07-30T13:58:27.116Z,40.50
2017-07-30T14:00:54.724Z,42.30
2017-07-30T14:03:22.392Z,42.40
2017-07-30T14:05:50.003Z,41.90
2017-07-30T14:08:18.930Z,44.30
2017-07-30T14:10:46.618Z,44.20
2017-07-30T14:13:14.183Z,40.40
2017-07-30T14:15:41.787Z,40.40
2017-07-30T14:18:09.678Z,40.50
2017-07-30T14:20:37.349Z,39.30
2017-07-30T14:23:04.960Z,42.10
2017-07-30T14:25:36.105Z,39.30
2017-07-30T14:28:04.095Z,39.30
2017-07-30T14:30:36.113Z,38.90
2017-07-30T14:33:07.236Z,40.80
2017-07-30T14:35:37.716Z,41.60
2017-07-30T14:38:09.836Z,40.70
2017-07-30T14:40:40.275Z,39.60
2017-07-30T14:43:12.934Z,39.60
2017-07-30T14:45:40.637Z,39.60
2017-07-30T14:48:08.228Z,39.40
2017-07-30T14:50:35.775Z,43.40
2017-07-30T14:53:03.389Z,42.00
2017-07-30T14:55:30.997Z,41.30
2017-07-30T14:57:59.416Z,38.80
2017-07-30T15:00:27.039Z,38.20
2017-07-30T15:02:54.678Z,41.40
2017-07-30T15:05:22.254Z,42.10
2017-07-30T15:07:50.871Z,41.10
2017-07-30T15:10:18.998Z,43.90
2017-07-30T15:12:47.708Z,37.10
2017-07-30T15:15:16.690Z,40.10
2017-07-30T15:17:44.409Z,40.00
2017-07-30T15:20:12.760Z,37.10
2017-07-30T15:22:41.224Z,36.50
2017-07-30T15:25:08.850Z,35.90
2017-07-30T15:27:36.466Z,34.10
2017-07-30T15:30:04.025Z,34.10
2017-07-30T15:32:32.772Z,36.30
2017-07-30T15:35:00.323Z,32.30
2017-07-30T15:37:28.735Z,31.10
2017-07-30T15:39:56.404Z,31.10
2017-07-30T15:42:24.082Z,32.50
2017-07-30T15:44:51.690Z,37.20
2017-07-30T15:47:19.311Z,39.90
2017-07-30T15:49:46.859Z,37.70
2017-07-30T15:52:14.433Z,37.00
2017-07-30T15:54:42.023Z,38.60
2017-07-30T15:57:09.600Z,35.50
2017-07-30T15:59:37.203Z,40.00
2017-07-30T16:02:05.545Z,38.50
2017-07-30T16:04:33.147Z,38.50
2017-07-30T16:07:00.735Z,40.90
2017-07-30T16:09:28.384Z,42.70
2017-07-30T16:11:56.002Z,40.80
2017-07-30T16:14:23.642Z,39.90
2017-07-30T16:16:51.195Z,41.70
2017-07-30T16:19:18.784Z,42.00
2017-07-30T16:21:47.257Z,42.00
2017-07-30T16:24:15.632Z,46.10
2017-07-30T16:26:43.224Z,46.10
2017-07-30T16:29:10.813Z,42.40
2017-07-30T16:31:38.363Z,42.90
2017-07-30T16:34:06.713Z,43.10
2017-07-30T16:36:35.026Z,42.90
2017-07-30T16:39:02.611Z,43.00
2017-07-30T16:41:30.311Z,40.90
2017-07-30T16:43:57.956Z,47.50
2017-07-30T16:46:26.173Z,46.10
2017-07-30T16:48:53.855Z,44.50
2017-07-30T16:51:21.482Z,48.10
2017-07-30T16:53:49.840Z,51.40
2017-07-30T16:56:18.223Z,48.60
2017-07-30T16:58:45.846Z,48.30
2017-07-30T17:01:15.068Z,45.50
2017-07-30T17:03:42.688Z,45.20
2017-07-30T17:06:10.345Z,46.70
2017-07-30T17:08:37.927Z,47.70
2017-07-30T17:11:05.552Z,47.60
2017-07-30T17:13:33.121Z,47.80
2017-07-30T17:16:00.771Z,49.30
2017-07-30T17:18:28.413Z,49.90
2017-07-30T17:20:56.039Z,53.00
2017-07-30T17:23:23.639Z,50.50
2017-07-30T17:25:51.294Z,49.10
2017-07-30T17:28:18.853Z,49.70
2017-07-30T17:30:47.188Z,47.20
2017-07-30T17:33:14.819Z,47.10
2017-07-30T17:35:42.364Z,47.20
2017-07-30T17:38:09.951Z,47.80
2017-07-30T17:40:38.256Z,50.30
2017-07-30T17:43:05.881Z,50.30
2017-07-30T17:45:33.475Z,51.10
2017-07-30T17:48:01.106Z,50.30
2017-07-30T17:50:28.705Z,52.10
2017-07-30T17:52:56.339Z,50.10
2017-07-30T17:55:24.019Z,49.90
2017-07-30T17:57:51.635Z,52.40
2017-07-30T18:00:19.975Z,54.40
2017-07-30T18:02:47.584Z,54.70
2017-07-30T18:05:15.163Z,54.50
2017-07-30T18:07:42.759Z,55.00
2017-07-30T18:10:10.318Z,56.10
2017-07-30T18:12:37.934Z,57.40
2017-07-30T18:15:06.275Z,57.90
2017-07-30T18:17:33.893Z,57.90
2017-07-30T18:20:01.492Z,59.30
2017-07-30T18:22:29.909Z,59.20
2017-07-30T18:24:57.503Z,59.20
2017-07-30T18:27:25.928Z,59.70
2017-07-30T18:29:53.524Z,59.60
2017-07-30T18:32:21.125Z,60.80
2017-07-30T18:34:48.678Z,61.70
2017-07-30T18:37:16.283Z,62.60
2017-07-30T18:39:43.879Z,62.80
2017-07-30T18:42:11.498Z,63.20
2017-07-30T18:44:39.039Z,63.50
2017-07-30T18:47:06.633Z,63.00
2017-07-30T18:49:34.983Z,64.40
2017-07-30T18:52:02.580Z,64.20
2017-07-30T18:54:30.176Z,64.20
2017-07-30T18:56:58.581Z,64.50
2017-07-30T18:59:26.240Z,64.40
2017-07-30T19:01:53.894Z,65.20
2017-07-30T19:04:21.502Z,65.50
2017-07-30T19:06:49.074Z,66.10
2017-07-30T19:09:16.676Z,66.00
2017-07-30T19:11:45.029Z,67.50
2017-07-30T19:14:12.636Z,67.40
2017-07-30T19:16:40.216Z,68.00
2017-07-30T19:19:07.858Z,68.30
2017-07-30T19:21:35.420Z,68.30
2017-07-30T19:24:02.997Z,68.20
2017-07-30T19:26:30.647Z,68.40
2017-07-30T19:28:58.272Z,68.60
2017-07-30T19:31:25.971Z,69.90
2017-07-30T19:33:53.615Z,68.60
2017-07-30T19:36:21.242Z,70.10
2017-07-30T19:38:48.812Z,74.30
2017-07-30T19:41:16.419Z,76.80
2017-07-30T19:46:20.269Z,73.90
2017-07-30T19:48:47.810Z,73.00
2017-07-30T19:51:15.577Z,75.80
2017-07-30T19:53:43.124Z,79.00
2017-07-30T19:56:10.753Z,78.10
2017-07-30T19:58:38.337Z,78.70
2017-07-30T20:01:05.905Z,79.20
2017-07-30T20:03:33.547Z,78.40
2017-07-30T20:06:01.197Z,78.40
2017-07-30T20:08:28.853Z,78.30
2017-07-30T20:10:56.539Z,78.70
2017-07-30T20:13:24.248Z,79.40
2017-07-30T20:15:51.860Z,80.00
2017-07-30T20:18:20.250Z,81.40
2017-07-30T20:20:47.822Z,81.30
2017-07-30T20:23:15.438Z,81.30
2017-07-30T20:25:43.013Z,82.00
2017-07-30T20:28:10.635Z,81.90
2017-07-30T20:30:38.216Z,82.80
2017-07-30T20:33:05.830Z,82.90
2017-07-30T20:35:33.412Z,82.60
2017-07-30T20:38:01.032Z,83.50
2017-07-30T20:40:28.641Z,83.60
2017-07-30T20:42:57.022Z,83.00
2017-07-30T20:45:24.601Z,83.00
2017-07-30T20:47:52.193Z,83.80
2017-07-30T20:50:20.500Z,84.60
2017-07-30T20:52:48.038Z,84.50
2017-07-30T20:55:15.619Z,84.40
2017-07-30T20:57:43.214Z,84.10
2017-07-30T21:00:10.764Z,84.60
2017-07-30T21:02:38.328Z,85.10
2017-07-30T21:05:05.986Z,86.30
2017-07-30T21:07:33.673Z,87.70
2017-07-30T21:10:02.039Z,86.20
2017-07-30T21:12:30.368Z,85.90
2017-07-30T21:14:58.010Z,85.70
2017-07-30T21:17:25.606Z,86.30
2017-07-30T21:19:53.245Z,87.30
2017-07-30T21:22:20.807Z,87.40
2017-07-30T21:24:48.412Z,87.60
2017-07-30T21:27:15.954Z,88.20
2017-07-30T21:29:43.569Z,87.20
2017-07-30T21:32:11.120Z,87.20
2017-07-30T21:34:38.729Z,86.90
2017-07-30T21:37:07.061Z,87.70
2017-07-30T21:39:34.673Z,87.60
2017-07-30T21:42:02.242Z,88.00
2017-07-30T21:44:29.890Z,87.30
2017-07-30T21:46:57.593Z,88.10
2017-07-30T21:49:25.277Z,88.50
2017-07-30T21:51:52.899Z,88.10
2017-07-30T21:54:20.565Z,88.50
2017-07-30T21:56:48.153Z,88.00
2017-07-30T21:59:16.598Z,88.10
2017-07-30T22:01:45.235Z,88.00
2017-07-30T22:04:12.959Z,88.60
2017-07-30T22:06:40.598Z,88.50
2017-07-30T22:09:09.046Z,88.80
2017-07-30T22:11:36.652Z,88.70
2017-07-30T22:14:04.325Z,88.20
2017-07-30T22:16:32.015Z,88.50
2017-07-30T22:18:59.738Z,88.90
2017-07-30T22:21:28.187Z,89.40
2017-07-30T22:23:56.020Z,88.60
2017-07-30T22:26:24.305Z,88.40
2017-07-30T22:28:51.890Z,88.20
2017-07-30T22:31:19.459Z,88.10
2017-07-30T22:33:47.029Z,87.70
2017-07-30T22:36:14.604Z,88.10
2017-07-30T22:38:42.955Z,88.30
2017-07-30T22:41:10.560Z,88.10
2017-07-30T22:43:38.117Z,88.30
2017-07-30T22:46:05.834Z,87.80
2017-07-30T22:48:33.469Z,87.70
2017-07-30T22:51:01.152Z,87.80
2017-07-30T22:53:28.888Z,87.90
2017-07-30T22:55:56.840Z,88.40
2017-07-30T22:58:24.603Z,88.30
2017-07-30T23:00:52.232Z,87.80
2017-07-30T23:03:19.818Z,88.30
2017-07-30T23:05:47.383Z,88.30
2017-07-30T23:08:14.969Z,88.10
2017-07-30T23:10:42.559Z,88.00
2017-07-30T23:13:10.140Z,88.10
2017-07-30T23:15:38.522Z,87.90
2017-07-30T23:18:06.336Z,87.90
2017-07-30T23:20:34.910Z,88.70
2017-07-30T23:23:02.622Z,88.60
2017-07-30T23:25:31.170Z,88.60
2017-07-30T23:27:59.462Z,88.50
2017-07-30T23:30:27.738Z,88.80
2017-07-30T23:32:56.582Z,88.80
2017-07-30T23:35:26.222Z,88.80
2017-07-30T23:37:55.740Z,88.70
2017-07-30T23:40:25.017Z,88.70
2017-07-30T23:42:53.498Z,88.90
2017-07-30T23:45:21.346Z,89.10
2017-07-30T23:47:48.905Z,88.60
2017-07-30T23:50:16.515Z,88.90
2017-07-30T23:52:44.853Z,89.70
2017-07-30T23:55:12.486Z,88.70
2017-07-30T23:57:40.020Z,88.90
